Time;durP1;ratioP1;P1;durP2;ratioP2;P2;SDS_P1;SDS_P2;PMS_P1;PMS_P2;Temp;Humidity;BMP_temperature;BMP_pressure;BME280_temperature;BME280_humidity;BME280_pressure;Samples;Min_cycle;Max_cycle;Signal;HPM_P1;HPM_P2
2022/10/31 00:00:50;;;;;;;0.50;0.50;;;11.90;95.90;;;;;;5075430;28;20190;-69
2022/10/31 00:03:17;;;;;;;0.63;0.63;;;12.00;95.70;;;;;;5075763;28;20169;-69
2022/10/31 00:05:45;;;;;;;0.50;0.50;;;12.00;95.70;;;;;;5075810;28;20517;-70
2022/10/31 00:08:10;;;;;;;0.50;0.50;;;12.00;95.80;;;;;;5075864;28;20569;-67
2022/10/31 00:10:40;;;;;;;0.77;0.77;;;11.90;96.10;;;;;;5075721;28;20242;-68
2022/10/31 00:13:06;;;;;;;5.50;1.10;;;11.80;96.50;;;;;;5076067;28;20607;-69
2022/10/31 00:15:34;;;;;;;0.47;0.47;;;11.80;96.60;;;;;;5075331;28;20205;-71
2022/10/31 00:18:00;;;;;;;0.30;0.30;;;11.80;96.80;;;;;;5075526;28;20169;-68
2022/10/31 00:20:25;;;;;;;0.30;0.30;;;11.80;96.90;;;;;;5075387;28;20197;-68
2022/10/31 00:22:51;;;;;;;0.40;0.40;;;11.90;96.80;;;;;;5075643;28;20256;-68
2022/10/31 00:25:16;;;;;;;0.60;0.60;;;11.80;96.60;;;;;;5075491;28;20197;-69
2022/10/31 00:27:42;;;;;;;0.30;0.30;;;11.80;96.60;;;;;;5075180;28;20555;-68
2022/10/31 00:30:08;;;;;;;0.37;0.30;;;11.70;96.70;;;;;;5074943;28;20354;-69
2022/10/31 00:32:34;;;;;;;0.50;0.50;;;11.70;96.90;;;;;;5075388;28;20198;-69
2022/10/31 00:34:59;;;;;;;0.30;0.30;;;11.70;96.70;;;;;;5075204;28;20204;-68
2022/10/31 00:37:25;;;;;;;2.27;0.53;;;11.80;96.60;;;;;;5075345;28;20166;-68
2022/10/31 00:39:50;;;;;;;0.40;0.40;;;11.80;96.60;;;;;;5074093;28;20196;-71
2022/10/31 00:42:16;;;;;;;0.80;0.80;;;11.70;96.80;;;;;;5075437;28;20172;-68
2022/10/31 00:44:42;;;;;;;0.40;0.40;;;11.70;96.50;;;;;;5075031;28;20524;-71
2022/10/31 00:47:07;;;;;;;0.57;0.57;;;11.80;96.60;;;;;;5074910;28;20173;-70
2022/10/31 00:49:33;;;;;;;0.40;0.40;;;11.80;96.60;;;;;;5074484;28;20190;-68
2022/10/31 00:51:58;;;;;;;0.80;0.60;;;11.80;96.50;;;;;;5075248;28;20177;-69
2022/10/31 00:54:24;;;;;;;0.90;0.90;;;11.70;96.70;;;;;;5075061;28;20242;-68
2022/10/31 00:56:50;;;;;;;0.67;0.67;;;11.70;96.90;;;;;;5075134;28;20219;-71
2022/10/31 00:59:15;;;;;;;0.60;0.60;;;11.80;99.90;;;;;;5074268;28;20211;-68
2022/10/31 01:01:41;;;;;;;0.30;0.30;;;11.70;97.10;;;;;;5074645;28;20214;-69
2022/10/31 01:04:06;;;;;;;0.40;0.40;;;11.70;96.90;;;;;;5074690;28;20245;-69
2022/10/31 01:06:32;;;;;;;0.37;0.37;;;11.60;96.70;;;;;;5074766;28;20208;-70
2022/10/31 01:08:58;;;;;;;0.50;0.50;;;11.60;96.90;;;;;;5074630;28;20180;-70
2022/10/31 01:11:23;;;;;;;0.50;0.50;;;11.60;97.00;;;;;;5074865;28;20186;-68
2022/10/31 01:13:52;;;;;;;0.40;0.40;;;11.60;96.90;;;;;;5074414;28;20170;-69
2022/10/31 01:16:19;;;;;;;0.38;0.38;;;11.60;96.80;;;;;;5074262;28;20443;-69
2022/10/31 01:18:45;;;;;;;1.23;1.15;;;11.60;96.70;;;;;;5074209;28;20184;-70
2022/10/31 01:21:16;;;;;;;1.45;1.35;;;11.70;96.70;;;;;;5074460;28;20186;-71
2022/10/31 01:23:42;;;;;;;0.47;0.47;;;11.70;96.80;;;;;;5074393;28;20625;-69
2022/10/31 01:26:30;;;;;;;0.30;0.30;;;11.70;96.60;;;;;;5074031;28;20193;-69
2022/10/31 01:29:00;;;;;;;0.80;0.40;;;11.60;96.80;;;;;;5074065;28;20907;-68
2022/10/31 01:31:29;;;;;;;0.68;0.50;;;11.60;96.90;;;;;;5074262;28;20189;-69
2022/10/31 01:33:55;;;;;;;0.40;0.40;;;11.50;97.40;;;;;;5074459;28;20170;-69
2022/10/31 01:36:30;;;;;;;2.45;1.05;;;11.40;97.70;;;;;;5073835;28;20518;-68
2022/10/31 01:38:58;;;;;;;0.30;0.30;;;11.50;97.80;;;;;;5073881;28;20168;-68
2022/10/31 01:41:30;;;;;;;1.20;1.20;;;11.60;97.60;;;;;;5074036;28;20189;-69
2022/10/31 01:44:23;;;;;;;1.35;1.25;;;11.50;97.50;;;;;;5074138;28;20161;-69
2022/10/31 01:46:53;;;;;;;3.45;0.90;;;11.50;97.50;;;;;;5074163;28;20533;-71
2022/10/31 01:49:24;;;;;;;1.25;0.70;;;11.80;99.90;;;;;;5073730;28;20177;-71
2022/10/31 01:52:03;;;;;;;0.40;0.40;;;11.50;97.70;;;;;;5074002;28;20177;-71
2022/10/31 01:54:37;;;;;;;0.40;0.40;;;11.60;97.60;;;;;;5074078;28;20212;-69
2022/10/31 01:57:06;;;;;;;0.30;0.30;;;11.60;97.40;;;;;;5074016;28;20161;-69
2022/10/31 01:59:37;;;;;;;0.80;0.80;;;11.50;97.50;;;;;;5074041;28;20201;-71
2022/10/31 02:02:03;;;;;;;0.40;0.40;;;11.50;97.90;;;;;;5073720;28;20256;-71
2022/10/31 02:04:29;;;;;;;2.40;2.30;;;11.50;97.70;;;;;;5073907;28;20266;-71
2022/10/31 02:07:06;;;;;;;1.73;1.60;;;11.50;97.70;;;;;;5073890;28;20173;-70
2022/10/31 02:09:33;;;;;;;0.57;0.52;;;11.50;97.70;;;;;;5073571;28;20289;-70
2022/10/31 02:11:59;;;;;;;0.70;0.70;;;11.50;97.70;;;;;;5074138;28;20523;-70
2022/10/31 02:14:28;;;;;;;0.60;0.60;;;11.50;97.70;;;;;;5073454;28;20198;-69
2022/10/31 02:16:54;;;;;;;0.30;0.30;;;11.50;97.80;;;;;;5073764;28;20169;-70
2022/10/31 02:19:40;;;;;;;0.40;0.40;;;11.90;99.90;;;;;;5073079;28;20170;-69
2022/10/31 02:22:16;;;;;;;0.45;0.45;;;11.40;97.80;;;;;;5073776;28;20395;-68
2022/10/31 02:24:49;;;;;;;0.40;0.40;;;11.40;97.90;;;;;;5073585;28;20673;-68
2022/10/31 02:27:36;;;;;;;0.98;0.98;;;11.50;97.90;;;;;;5073455;28;20612;-68
2022/10/31 02:30:14;;;;;;;2.92;0.82;;;11.50;98.00;;;;;;5073072;28;20204;-70
2022/10/31 02:33:14;;;;;;;0.75;0.73;;;12.20;98.40;;;;;;5073920;28;20212;-70
2022/10/31 02:35:43;;;;;;;0.40;0.40;;;11.40;98.00;;;;;;5073088;28;20204;-70
2022/10/31 02:38:27;;;;;;;2.90;2.65;;;11.40;98.10;;;;;;5073546;28;20563;-70
2022/10/31 02:41:27;;;;;;;0.60;0.60;;;11.50;98.10;;;;;;5073592;28;20204;-71
2022/10/31 02:44:13;;;;;;;0.55;0.55;;;11.50;98.00;;;;;;5073537;28;20182;-71
2022/10/31 02:46:43;;;;;;;1.08;1.08;;;11.50;97.90;;;;;;5073696;28;20511;-68
2022/10/31 02:49:26;;;;;;;0.40;0.40;;;11.50;97.90;;;;;;5073288;28;20252;-69
2022/10/31 02:51:52;;;;;;;0.82;0.82;;;11.50;97.80;;;;;;5073579;28;20181;-71
2022/10/31 02:54:28;;;;;;;0.60;0.60;;;11.50;98.00;;;;;;5073266;28;20552;-70
2022/10/31 02:57:14;;;;;;;0.30;0.30;;;11.50;98.10;;;;;;5073442;28;20396;-69
2022/10/31 02:59:47;;;;;;;1.40;0.82;;;11.40;98.20;;;;;;5072951;28;20241;-69
2022/10/31 03:02:41;;;;;;;0.80;0.75;;;11.40;98.30;;;;;;5074070;28;20165;-71
2022/10/31 03:05:48;;;;;;;0.45;0.45;;;11.50;98.30;;;;;;5076918;28;20256;-69
2022/10/31 03:08:41;;;;;;;0.40;0.40;;;11.50;98.30;;;;;;5071914;28;20189;-69
2022/10/31 03:11:09;;;;;;;1.25;1.15;;;11.50;98.30;;;;;;5066356;28;20699;-67
2022/10/31 03:13:45;;;;;;;0.40;0.40;;;11.60;98.20;;;;;;5076575;28;20172;-69
2022/10/31 03:16:21;;;;;;;4.30;1.65;;;11.60;98.10;;;;;;5077025;28;20200;-67
2022/10/31 03:19:00;;;;;;;1.05;0.68;;;11.60;98.00;;;;;;5076469;28;20211;-70
2022/10/31 03:21:30;;;;;;;0.90;0.73;;;11.50;98.00;;;;;;5076681;28;20255;-68
2022/10/31 03:23:57;;;;;;;1.88;1.80;;;11.40;98.30;;;;;;5076738;28;20595;-69
2022/10/31 03:26:24;;;;;;;1.35;1.20;;;11.40;98.70;;;;;;5076144;28;20189;-69
2022/10/31 03:29:12;;;;;;;0.65;0.65;;;11.50;98.80;;;;;;5076169;28;20183;-71
2022/10/31 03:32:06;;;;;;;0.63;0.63;;;11.50;98.80;;;;;;5076520;28;20154;-71
2022/10/31 03:34:35;;;;;;;0.80;0.80;;;11.40;98.80;;;;;;5073634;28;20212;-69
2022/10/31 03:37:05;;;;;;;0.40;0.40;;;11.50;98.80;;;;;;5076644;28;20523;-70
2022/10/31 03:39:32;;;;;;;0.30;0.30;;;11.50;98.60;;;;;;5076417;28;20654;-69
2022/10/31 03:42:30;;;;;;;0.40;0.40;;;11.50;98.50;;;;;;5076318;28;20177;-69
2022/10/31 03:44:58;;;;;;;0.45;0.45;;;11.50;98.50;;;;;;5071376;28;20195;-68
2022/10/31 03:47:25;;;;;;;2.35;1.40;;;11.50;98.40;;;;;;5076464;28;20166;-70
2022/10/31 03:49:50;;;;;;;0.40;0.40;;;11.60;98.40;;;;;;5076013;28;20194;-67
2022/10/31 03:52:55;;;;;;;0.40;0.40;;;11.60;98.30;;;;;;5075897;28;20710;-68
2022/10/31 03:55:39;;;;;;;0.40;0.40;;;11.70;98.20;;;;;;5075337;28;20557;-68
2022/10/31 03:58:22;;;;;;;0.30;0.30;;;11.70;98.10;;;;;;5075108;28;20708;-67
2022/10/31 04:00:51;;;;;;;0.30;0.30;;;11.70;98.20;;;;;;5075634;28;20705;-71
2022/10/31 04:03:31;;;;;;;0.30;0.30;;;11.60;98.50;;;;;;5076230;28;20170;-68
2022/10/31 04:06:02;;;;;;;4.97;0.95;;;11.70;98.30;;;;;;5075774;28;20169;-69
2022/10/31 04:08:31;;;;;;;0.50;0.50;;;11.70;98.20;;;;;;5075974;28;20177;-68
2022/10/31 04:10:59;;;;;;;0.47;0.47;;;11.60;98.20;;;;;;5075355;28;20219;-71
2022/10/31 04:13:28;;;;;;;0.40;0.40;;;11.70;98.20;;;;;;5074881;28;20169;-72
2022/10/31 04:15:55;;;;;;;0.40;0.40;;;11.70;98.00;;;;;;5075459;28;20201;-70
2022/10/31 04:18:23;;;;;;;0.40;0.40;;;11.70;98.00;;;;;;5075893;28;20223;-68
2022/10/31 04:20:58;;;;;;;0.52;0.52;;;11.70;98.00;;;;;;5075594;28;20189;-69
2022/10/31 04:23:26;;;;;;;0.40;0.40;;;11.70;98.30;;;;;;5075528;28;20473;-69
2022/10/31 04:25:52;;;;;;;0.60;0.60;;;11.70;98.30;;;;;;5075134;28;20254;-70
2022/10/31 04:28:18;;;;;;;0.70;0.70;;;11.70;98.20;;;;;;5075558;28;20208;-69
2022/10/31 04:30:44;;;;;;;1.08;0.50;;;11.70;98.20;;;;;;5075258;28;20198;-71
2022/10/31 04:33:09;;;;;;;0.77;0.70;;;11.70;98.30;;;;;;5075496;28;20219;-69
2022/10/31 04:35:36;;;;;;;0.40;0.40;;;11.70;98.20;;;;;;5075505;28;20603;-71
2022/10/31 04:38:02;;;;;;;0.40;0.40;;;11.70;98.20;;;;;;5074939;28;20169;-70
2022/10/31 04:40:28;;;;;;;1.63;1.30;;;11.70;98.20;;;;;;5074820;28;20185;-69
2022/10/31 04:42:54;;;;;;;1.23;1.23;;;11.70;98.10;;;;;;5075113;28;20638;-70
2022/10/31 04:45:19;;;;;;;0.30;0.30;;;11.70;98.00;;;;;;5075117;28;20776;-70
2022/10/31 04:47:45;;;;;;;1.10;1.00;;;11.70;98.00;;;;;;5074771;28;20165;-69
2022/10/31 04:50:10;;;;;;;0.73;0.40;;;11.60;98.30;;;;;;5074520;28;20569;-70
2022/10/31 04:52:44;;;;;;;2.33;0.70;;;11.60;98.50;;;;;;5074662;28;20637;-69
2022/10/31 04:55:11;;;;;;;0.30;0.30;;;11.60;98.50;;;;;;5074717;28;20205;-70
2022/10/31 04:57:44;;;;;;;0.70;0.52;;;11.60;98.70;;;;;;5074825;28;20176;-71
2022/10/31 05:00:12;;;;;;;0.30;0.30;;;11.60;98.70;;;;;;5074398;28;20601;-69
2022/10/31 05:02:53;;;;;;;0.30;0.30;;;11.60;98.80;;;;;;5075000;28;20170;-68
2022/10/31 05:05:22;;;;;;;0.50;0.40;;;11.50;98.70;;;;;;5074637;28;20173;-69
2022/10/31 05:07:49;;;;;;;0.80;0.75;;;11.50;98.90;;;;;;5074549;28;20178;-69
2022/10/31 05:10:18;;;;;;;1.83;0.65;;;11.50;98.90;;;;;;5074471;28;20194;-69
2022/10/31 05:12:51;;;;;;;1.05;0.93;;;11.60;98.80;;;;;;5074630;28;20169;-69
2022/10/31 05:15:18;;;;;;;0.50;0.50;;;11.50;98.70;;;;;;5074744;28;20714;-69
2022/10/31 05:17:44;;;;;;;0.40;0.40;;;11.50;99.10;;;;;;5074258;28;20248;-70
2022/10/31 05:20:11;;;;;;;1.03;0.80;;;11.50;99.30;;;;;;5074238;28;20606;-69
2022/10/31 05:22:37;;;;;;;1.13;1.13;;;11.50;99.30;;;;;;5074398;28;20396;-70
2022/10/31 05:25:03;;;;;;;0.30;0.30;;;11.40;99.20;;;;;;5073633;28;20609;-69
2022/10/31 05:27:28;;;;;;;0.38;0.38;;;11.40;99.20;;;;;;5074626;28;20173;-69
2022/10/31 05:29:54;;;;;;;2.20;2.10;;;11.40;99.20;;;;;;5073832;28;20557;-69
2022/10/31 05:32:20;;;;;;;0.67;0.60;;;11.50;99.00;;;;;;5074242;28;20196;-68
2022/10/31 05:34:45;;;;;;;0.93;0.87;;;11.40;98.80;;;;;;5074000;28;20200;-68
2022/10/31 05:37:11;;;;;;;0.80;0.80;;;11.40;98.90;;;;;;5074132;28;20615;-68
2022/10/31 05:39:37;;;;;;;0.60;0.60;;;11.30;99.20;;;;;;5073760;28;20192;-69
2022/10/31 05:42:03;;;;;;;0.40;0.40;;;11.30;99.30;;;;;;5074419;28;20198;-68
2022/10/31 05:44:29;;;;;;;0.40;0.40;;;11.30;99.40;;;;;;5074352;28;20415;-70
2022/10/31 05:46:54;;;;;;;0.40;0.40;;;11.30;99.30;;;;;;5074022;28;20407;-70
2022/10/31 05:49:20;;;;;;;2.83;1.97;;;11.50;99.90;;;;;;5073762;28;20817;-68
2022/10/31 05:51:45;;;;;;;2.13;1.37;;;11.50;99.10;;;;;;5074025;28;20222;-69
2022/10/31 05:54:11;;;;;;;0.40;0.40;;;11.50;99.00;;;;;;5074074;28;20646;-69
2022/10/31 05:56:37;;;;;;;0.57;0.50;;;11.50;98.90;;;;;;5074162;28;20180;-69
2022/10/31 05:59:02;;;;;;;0.40;0.40;;;11.40;98.90;;;;;;5073785;28;20171;-68
2022/10/31 06:01:28;;;;;;;0.40;0.40;;;11.50;99.00;;;;;;5073587;28;20731;-68
2022/10/31 06:03:54;;;;;;;1.97;1.87;;;11.40;98.90;;;;;;5073782;28;20193;-70
2022/10/31 06:06:19;;;;;;;1.60;1.50;;;11.40;99.10;;;;;;5073825;28;20227;-71
2022/10/31 06:08:45;;;;;;;3.53;0.60;;;11.40;99.20;;;;;;5072525;28;20184;-72
2022/10/31 06:11:10;;;;;;;1.60;1.50;;;11.50;98.80;;;;;;5073974;28;20199;-71
2022/10/31 06:13:36;;;;;;;2.30;1.33;;;11.60;98.70;;;;;;5074018;28;20169;-71
2022/10/31 06:16:02;;;;;;;0.40;0.40;;;11.70;98.60;;;;;;5073565;28;20212;-69
2022/10/31 06:18:27;;;;;;;0.90;0.90;;;11.70;98.60;;;;;;5073965;28;20173;-68
2022/10/31 06:20:53;;;;;;;0.43;0.40;;;11.80;98.50;;;;;;5073541;28;20548;-69
2022/10/31 06:23:19;;;;;;;0.73;0.73;;;11.90;98.20;;;;;;5073788;28;20173;-69
2022/10/31 06:25:49;;;;;;;0.90;0.80;;;12.00;97.80;;;;;;5073538;28;20181;-70
2022/10/31 06:28:15;;;;;;;0.40;0.40;;;12.10;97.90;;;;;;5073953;28;20551;-69
2022/10/31 06:30:40;;;;;;;0.80;0.80;;;12.10;97.70;;;;;;5073187;28;20470;-69
2022/10/31 06:33:06;;;;;;;1.47;0.80;;;12.20;97.60;;;;;;5073572;28;20166;-68
2022/10/31 06:35:32;;;;;;;0.40;0.40;;;12.20;97.50;;;;;;5073402;28;20681;-69
2022/10/31 06:37:58;;;;;;;0.40;0.40;;;12.30;98.00;;;;;;5075684;28;20197;-71
2022/10/31 06:40:24;;;;;;;0.40;0.40;;;12.40;97.40;;;;;;5077371;28;20554;-69
2022/10/31 06:43:00;;;;;;;0.60;0.53;;;12.60;97.30;;;;;;5077235;28;20162;-70
2022/10/31 06:45:26;;;;;;;0.40;0.40;;;12.60;97.30;;;;;;5077251;28;20196;-71
2022/10/31 06:47:53;;;;;;;0.70;0.70;;;12.80;97.20;;;;;;5077376;28;20885;-67
2022/10/31 06:50:20;;;;;;;0.40;0.40;;;12.90;96.90;;;;;;5076909;28;20976;-70
2022/10/31 06:52:53;;;;;;;0.50;0.50;;;13.00;96.70;;;;;;5077525;28;20435;-71
2022/10/31 06:55:22;;;;;;;0.37;0.37;;;13.10;96.70;;;;;;5077417;28;20444;-68
2022/10/31 06:57:52;;;;;;;1.80;1.17;;;13.20;97.00;;;;;;5076957;28;20392;-69
2022/10/31 07:00:18;;;;;;;0.40;0.40;;;13.20;97.00;;;;;;5076556;28;20443;-71
2022/10/31 07:02:52;;;;;;;2.00;1.90;;;13.20;97.10;;;;;;5077296;28;20403;-67
2022/10/31 07:05:17;;;;;;;0.60;0.50;;;13.30;97.40;;;;;;5077334;28;20399;-69
2022/10/31 07:07:43;;;;;;;0.60;0.50;;;13.30;96.90;;;;;;5077224;28;20406;-68
2022/10/31 07:10:09;;;;;;;0.40;0.40;;;13.40;96.60;;;;;;5076822;28;20525;-71
2022/10/31 07:12:34;;;;;;;0.40;0.40;;;13.50;96.50;;;;;;5075491;28;20224;-69
2022/10/31 07:15:00;;;;;;;0.60;0.50;;;13.70;96.10;;;;;;5076723;28;20599;-71
2022/10/31 07:17:25;;;;;;;0.63;0.63;;;13.90;95.90;;;;;;5077005;28;20181;-70
2022/10/31 07:19:51;;;;;;;1.27;1.17;;;14.10;95.60;;;;;;5076442;28;20238;-71
2022/10/31 07:22:17;;;;;;;0.90;0.90;;;14.30;95.60;;;;;;5077098;28;20199;-71
2022/10/31 07:24:42;;;;;;;0.40;0.40;;;14.50;95.60;;;;;;5076787;28;20230;-70
2022/10/31 07:27:08;;;;;;;0.60;0.60;;;14.90;95.50;;;;;;5076493;28;20262;-71
2022/10/31 07:29:33;;;;;;;0.93;0.90;;;15.20;94.40;;;;;;5076996;28;20252;-69
2022/10/31 07:32:00;;;;;;;0.40;0.40;;;15.50;94.00;;;;;;5076732;28;20251;-69
2022/10/31 07:34:25;;;;;;;2.07;1.20;;;15.80;94.10;;;;;;5076904;28;20169;-71
2022/10/31 07:36:51;;;;;;;0.90;0.83;;;16.20;93.80;;;;;;5076621;28;20541;-71
2022/10/31 07:39:17;;;;;;;0.50;0.50;;;17.10;99.90;;;;;;5075918;28;20235;-69
2022/10/31 07:41:43;;;;;;;0.60;0.60;;;16.90;93.10;;;;;;5076215;28;20404;-71
2022/10/31 07:44:08;;;;;;;0.57;0.57;;;17.10;92.70;;;;;;5076269;28;20166;-71
2022/10/31 07:46:34;;;;;;;0.40;0.40;;;17.20;92.40;;;;;;5076342;28;20641;-71
2022/10/31 07:48:59;;;;;;;1.80;0.97;;;17.30;92.30;;;;;;5075800;28;20201;-70
2022/10/31 07:51:26;;;;;;;0.50;0.50;;;17.40;92.20;;;;;;5076430;28;20192;-70
2022/10/31 07:53:51;;;;;;;1.20;1.10;;;17.50;92.20;;;;;;5075875;28;20166;-68
2022/10/31 07:56:17;;;;;;;2.50;1.53;;;17.70;92.10;;;;;;5076113;28;20535;-68
2022/10/31 07:58:43;;;;;;;0.80;0.50;;;17.90;91.80;;;;;;5075911;28;20173;-71
2022/10/31 08:01:08;;;;;;;0.90;0.90;;;18.00;91.80;;;;;;5076035;28;20192;-68
2022/10/31 08:03:34;;;;;;;0.90;0.60;;;18.00;91.60;;;;;;5076169;28;20162;-69
2022/10/31 08:06:00;;;;;;;1.60;0.87;;;18.00;91.40;;;;;;5076171;28;20173;-68
2022/10/31 08:08:27;;;;;;;0.93;0.93;;;18.00;91.20;;;;;;5075597;28;20174;-69
2022/10/31 08:10:54;;;;;;;1.37;0.73;;;18.00;91.10;;;;;;5075331;28;20731;-70
2022/10/31 08:13:20;;;;;;;0.70;0.40;;;18.00;91.50;;;;;;5075878;28;20438;-68
2022/10/31 08:15:49;;;;;;;0.50;0.50;;;18.10;91.60;;;;;;5075674;28;20496;-71
2022/10/31 08:18:16;;;;;;;1.47;0.87;;;18.30;91.70;;;;;;5075889;28;20183;-69
2022/10/31 08:20:42;;;;;;;0.30;0.30;;;18.50;91.70;;;;;;5075166;28;20515;-71
2022/10/31 08:23:09;;;;;;;1.17;1.07;;;18.70;91.50;;;;;;5075573;28;20396;-70
2022/10/31 08:25:35;;;;;;;0.67;0.67;;;19.10;91.10;;;;;;5075373;28;20427;-70
2022/10/31 08:28:01;;;;;;;0.50;0.50;;;19.40;91.00;;;;;;5075540;28;20909;-69
2022/10/31 08:30:29;;;;;;;0.87;0.87;;;19.50;90.80;;;;;;5074945;28;20199;-70
2022/10/31 08:33:03;;;;;;;2.40;1.13;;;19.60;90.50;;;;;;5075760;28;20406;-72
2022/10/31 08:35:29;;;;;;;2.73;1.47;;;19.70;90.10;;;;;;5075384;28;20458;-71
2022/10/31 08:37:56;;;;;;;0.90;0.90;;;19.70;89.90;;;;;;5075071;28;20415;-72
2022/10/31 08:40:23;;;;;;;1.10;1.10;;;19.70;89.70;;;;;;5074690;28;20931;-71
2022/10/31 08:42:59;;;;;;;0.80;0.80;;;19.80;89.20;;;;;;5075309;28;20464;-71
2022/10/31 08:45:25;;;;;;;1.03;0.90;;;19.90;88.30;;;;;;5075448;28;20493;-69
2022/10/31 08:47:51;;;;;;;0.90;0.90;;;20.00;88.40;;;;;;5075408;28;20499;-71
2022/10/31 08:50:17;;;;;;;0.63;0.63;;;20.20;88.50;;;;;;5074613;28;20457;-71
2022/10/31 08:52:42;;;;;;;1.93;0.90;;;20.30;86.40;;;;;;5074937;28;20257;-72
2022/10/31 08:55:08;;;;;;;1.33;0.80;;;20.40;85.10;;;;;;5074920;28;20593;-68
2022/10/31 08:57:34;;;;;;;0.60;0.60;;;20.60;84.50;;;;;;5074929;28;20173;-71
2022/10/31 08:59:59;;;;;;;3.40;0.80;;;20.80;84.60;;;;;;5073938;28;20188;-69
2022/10/31 09:02:25;;;;;;;1.23;0.87;;;21.10;85.00;;;;;;5075038;28;20488;-71
2022/10/31 09:04:51;;;;;;;0.87;0.87;;;21.30;84.70;;;;;;5074645;28;20174;-69
2022/10/31 09:07:17;;;;;;;1.00;1.00;;;21.40;84.50;;;;;;5074724;28;20170;-70
2022/10/31 09:09:42;;;;;;;0.73;0.73;;;21.50;84.00;;;;;;5074163;28;20190;-72
2022/10/31 09:12:08;;;;;;;2.40;1.33;;;21.60;83.70;;;;;;5074802;28;20424;-71
2022/10/31 09:14:33;;;;;;;2.40;1.00;;;21.70;84.30;;;;;;5074766;28;20209;-68
2022/10/31 09:16:59;;;;;;;0.50;0.50;;;21.80;84.30;;;;;;5074544;28;20527;-69
2022/10/31 09:19:25;;;;;;;0.80;0.70;;;21.50;96.00;;;;;;5074022;28;20167;-71
2022/10/31 09:21:54;;;;;;;1.27;1.13;;;21.80;84.10;;;;;;5074372;28;20191;-70
2022/10/31 09:24:20;;;;;;;0.60;0.50;;;21.80;84.20;;;;;;5074341;28;20179;-69
2022/10/31 09:26:45;;;;;;;1.47;1.00;;;21.90;84.30;;;;;;5074297;28;20467;-72
2022/10/31 09:29:11;;;;;;;0.67;0.67;;;21.90;84.10;;;;;;5074333;28;20197;-71
2022/10/31 09:31:37;;;;;;;1.00;1.00;;;22.00;84.60;;;;;;5074420;28;20668;-72
2022/10/31 09:34:02;;;;;;;1.10;1.10;;;22.10;84.40;;;;;;5073935;28;20222;-71
2022/10/31 09:36:28;;;;;;;0.70;0.70;;;22.20;84.10;;;;;;5074080;28;20202;-71
2022/10/31 09:38:54;;;;;;;0.50;0.50;;;22.30;83.70;;;;;;5073988;28;20164;-71
2022/10/31 09:41:58;;;;;;;0.77;0.77;;;22.30;83.40;;;;;;5074190;28;20188;-70
2022/10/31 09:44:33;;;;;;;1.43;1.13;;;22.50;83.10;;;;;;5073041;28;20648;-72
2022/10/31 09:47:10;;;;;;;0.93;0.93;;;22.60;81.80;;;;;;5073955;28;20437;-69
2022/10/31 09:50:09;;;;;;;0.70;0.70;;;22.80;79.60;;;;;;5073722;28;20410;-68
2022/10/31 09:52:41;;;;;;;0.80;0.80;;;22.90;79.70;;;;;;5073958;28;20521;-71
2022/10/31 09:55:18;;;;;;;0.60;0.60;;;23.20;80.30;;;;;;5073831;28;20496;-70
2022/10/31 09:57:45;;;;;;;1.37;0.93;;;23.50;79.30;;;;;;5074120;28;20765;-71
2022/10/31 10:00:22;;;;;;;0.60;0.47;;;23.80;77.10;;;;;;5073422;28;20424;-71
2022/10/31 10:03:10;;;;;;;2.20;0.97;;;24.00;75.10;;;;;;5073700;28;20388;-71
2022/10/31 10:06:04;;;;;;;0.80;0.80;;;24.00;74.30;;;;;;5073807;28;20412;-70
2022/10/31 10:08:32;;;;;;;0.70;0.60;;;24.10;74.10;;;;;;5073997;28;20886;-73
2022/10/31 10:11:08;;;;;;;0.40;0.40;;;24.10;73.30;;;;;;5072894;28;20516;-70
2022/10/31 10:14:15;;;;;;;0.70;0.70;;;24.10;73.40;;;;;;5072337;28;20521;-70
2022/10/31 10:16:52;;;;;;;2.50;0.60;;;24.00;73.30;;;;;;4972981;28;20911;-70
2022/10/31 10:20:10;;;;;;;0.50;0.50;;;24.00;85.80;;;;;;4972822;28;20523;-71
2022/10/31 10:23:05;;;;;;;1.70;0.83;;;23.80;73.30;;;;;;5041157;28;20424;-73
2022/10/31 10:25:41;;;;;;;0.57;0.57;;;23.60;73.80;;;;;;5073535;28;20452;-72
2022/10/31 10:28:27;;;;;;;1.00;0.73;;;23.40;73.90;;;;;;5073347;28;20470;-72
2022/10/31 10:31:08;;;;;;;0.70;0.70;;;23.20;74.60;;;;;;5073400;28;20453;-72
2022/10/31 10:33:41;;;;;;;1.70;1.30;;;23.00;75.40;;;;;;5073861;28;20904;-70
2022/10/31 10:36:31;;;;;;;2.40;0.60;;;22.80;76.50;;;;;;5073530;28;20479;-70
2022/10/31 10:39:05;;;;;;;0.80;0.80;;;22.60;77.90;;;;;;5073116;28;20414;-70
2022/10/31 10:41:32;;;;;;;0.53;0.53;;;22.40;79.40;;;;;;5072521;28;20518;-70
2022/10/31 10:43:58;;;;;;;0.50;0.50;;;22.20;78.50;;;;;;5073255;28;20823;-71
2022/10/31 10:49:21;;;;;;;0.50;0.50;;;21.90;93.70;;;;;;5072791;28;20590;-71
2022/10/31 10:52:08;;;;;;;0.40;0.40;;;21.70;77.80;;;;;;5072982;28;20516;-71
2022/10/31 10:54:41;;;;;;;3.00;1.00;;;21.50;77.80;;;;;;5073110;28;20764;-71
2022/10/31 10:57:40;;;;;;;0.70;0.70;;;21.40;81.80;;;;;;5073189;28;20397;-70
2022/10/31 11:00:17;;;;;;;0.50;0.50;;;21.30;83.00;;;;;;5072704;28;20409;-72
2022/10/31 11:02:43;;;;;;;0.80;0.70;;;21.40;84.20;;;;;;5072884;28;20404;-72
2022/10/31 11:05:22;;;;;;;1.33;1.23;;;21.30;82.40;;;;;;5072853;28;20404;-71
2022/10/31 11:07:48;;;;;;;0.73;0.40;;;21.30;80.90;;;;;;5073090;28;20402;-70
2022/10/31 11:10:15;;;;;;;0.40;0.40;;;21.30;80.60;;;;;;5072575;28;20424;-69
2022/10/31 11:12:43;;;;;;;0.60;0.60;;;21.40;79.00;;;;;;5072839;28;20626;-71
2022/10/31 11:15:22;;;;;;;1.03;1.03;;;21.60;80.60;;;;;;5072968;28;20449;-69
2022/10/31 11:17:54;;;;;;;0.60;0.60;;;21.90;80.80;;;;;;5072539;28;20445;-69
2022/10/31 11:20:19;;;;;;;0.30;0.30;;;21.80;73.00;;;;;;5072545;28;20499;-70
2022/10/31 11:22:47;;;;;;;0.77;0.77;;;21.70;70.50;;;;;;5073242;28;20901;-69
2022/10/31 11:25:19;;;;;;;0.50;0.50;;;21.50;71.50;;;;;;5076478;28;20401;-71
2022/10/31 11:27:45;;;;;;;1.57;1.47;;;21.40;71.80;;;;;;5075202;28;20802;-69
2022/10/31 11:30:13;;;;;;;1.13;0.53;;;21.50;72.60;;;;;;5076128;28;20478;-69
2022/10/31 11:32:47;;;;;;;0.40;0.40;;;21.70;72.00;;;;;;5076056;28;20495;-72
2022/10/31 11:35:18;;;;;;;0.80;0.80;;;21.80;71.20;;;;;;5076240;28;20499;-72
2022/10/31 11:37:45;;;;;;;0.70;0.70;;;21.90;71.10;;;;;;5076253;28;20408;-70
2022/10/31 11:40:25;;;;;;;0.40;0.40;;;22.00;70.30;;;;;;5075712;28;20844;-73
2022/10/31 11:42:53;;;;;;;0.40;0.40;;;22.00;70.40;;;;;;5075937;28;20411;-73
2022/10/31 11:45:31;;;;;;;0.40;0.40;;;22.10;70.90;;;;;;5076243;28;20407;-71
2022/10/31 11:47:58;;;;;;;0.40;0.40;;;22.30;68.90;;;;;;5076191;28;20766;-72
2022/10/31 11:50:26;;;;;;;0.80;0.70;;;22.50;68.20;;;;;;5075610;28;20915;-72
2022/10/31 11:52:53;;;;;;;0.83;0.73;;;22.70;68.80;;;;;;5076030;28;20502;-71
2022/10/31 11:55:37;;;;;;;2.03;0.50;;;22.80;75.30;;;;;;5075857;28;20454;-70
2022/10/31 11:58:04;;;;;;;0.50;0.40;;;22.70;72.20;;;;;;5075791;28;20462;-70
2022/10/31 12:00:33;;;;;;;0.67;0.67;;;22.70;74.20;;;;;;5075653;28;20422;-71
2022/10/31 12:03:23;;;;;;;0.50;0.47;;;22.60;71.10;;;;;;5075785;28;20381;-69
2022/10/31 12:06:05;;;;;;;0.30;0.30;;;22.50;70.20;;;;;;5076100;28;20418;-70
2022/10/31 12:08:34;;;;;;;0.30;0.30;;;22.30;71.80;;;;;;5075626;28;20403;-69
2022/10/31 12:11:37;;;;;;;0.40;0.40;;;22.10;70.20;;;;;;5075244;28;20421;-72
2022/10/31 12:14:08;;;;;;;1.33;0.60;;;21.90;70.80;;;;;;5075438;28;20443;-73
2022/10/31 12:16:41;;;;;;;0.80;0.53;;;21.80;71.20;;;;;;5075516;28;20845;-70
2022/10/31 12:19:25;;;;;;;0.40;0.40;;;21.80;70.70;;;;;;5075440;28;20406;-70
2022/10/31 12:22:18;;;;;;;1.40;0.40;;;21.80;69.40;;;;;;5075314;28;20476;-70
2022/10/31 12:24:55;;;;;;;0.70;0.70;;;21.80;69.90;;;;;;5075215;28;20408;-71
2022/10/31 12:27:48;;;;;;;0.50;0.50;;;21.60;73.90;;;;;;5075226;28;20411;-72
2022/10/31 12:30:23;;;;;;;0.50;0.50;;;21.40;74.70;;;;;;5074909;28;20546;-69
2022/10/31 12:33:10;;;;;;;0.60;0.50;;;21.20;75.60;;;;;;5075041;28;20424;-71
2022/10/31 12:35:48;;;;;;;1.03;0.90;;;21.00;76.50;;;;;;5074075;28;20534;-72
2022/10/31 12:38:32;;;;;;;0.87;0.87;;;20.80;76.00;;;;;;5075229;28;20873;-72
2022/10/31 12:41:11;;;;;;;0.60;0.60;;;20.50;76.00;;;;;;5074886;28;20426;-71
2022/10/31 12:44:06;;;;;;;0.40;0.40;;;20.40;71.40;;;;;;5075140;28;20810;-72
2022/10/31 12:47:18;;;;;;;0.70;0.70;;;20.20;73.70;;;;;;5074898;28;20410;-71
2022/10/31 12:50:13;;;;;;;1.03;1.03;;;20.00;71.70;;;;;;5074526;28;20493;-72
2022/10/31 12:53:04;;;;;;;0.50;0.50;;;19.80;72.60;;;;;;5074678;28;20385;-69
2022/10/31 12:55:55;;;;;;;1.37;0.60;;;19.80;70.60;;;;;;5074695;28;20492;-72
2022/10/31 12:58:34;;;;;;;0.70;0.47;;;19.80;70.10;;;;;;5074778;28;20414;-71
2022/10/31 13:01:32;;;;;;;0.70;0.70;;;19.80;70.40;;;;;;5074164;28;20501;-69
2022/10/31 13:04:12;;;;;;;0.30;0.30;;;19.80;68.60;;;;;;5056844;28;20426;-72
2022/10/31 13:06:48;;;;;;;0.50;0.50;;;19.70;68.10;;;;;;5074387;28;20429;-71
2022/10/31 13:09:23;;;;;;;0.60;0.50;;;19.60;68.60;;;;;;5074251;28;20399;-70
2022/10/31 13:11:56;;;;;;;0.50;0.50;;;19.60;67.10;;;;;;5074356;28;20413;-70
2022/10/31 13:14:33;;;;;;;0.50;0.50;;;19.50;69.10;;;;;;5074130;28;20752;-70